Time;durP1;ratioP1;P1;durP2;ratioP2;P2;SDS_P1;SDS_P2;PMS_P1;PMS_P2;Temp;Humidity;BMP_temperature;BMP_pressure;BME280_temperature;BME280_humidity;BME280_pressure;Samples;Min_cycle;Max_cycle;Signal;HPM_P1;HPM_P2
2022/07/02 00:02:23;;;;;;;3.08;0.47;;;17.30;99.90;;;;;;4876367;29;20025;-75
2022/07/02 00:04:58;;;;;;;2.95;0.80;;;17.30;99.90;;;;;;4876799;29;20430;-75
2022/07/02 00:07:25;;;;;;;4.22;0.65;;;17.20;99.90;;;;;;4876160;29;20504;-74
2022/07/02 00:09:54;;;;;;;3.33;0.40;;;17.20;99.90;;;;;;4876535;29;20148;-75
2022/07/02 00:12:20;;;;;;;3.55;0.60;;;17.10;99.90;;;;;;4876566;29;20507;-75
2022/07/02 00:14:50;;;;;;;5.10;0.75;;;17.10;99.90;;;;;;4876482;29;20064;-74
2022/07/02 00:17:16;;;;;;;1.98;0.68;;;17.00;99.90;;;;;;4876766;29;20120;-75
2022/07/02 00:19:43;;;;;;;3.92;0.73;;;17.00;99.90;;;;;;4876190;29;20544;-75
2022/07/02 00:22:10;;;;;;;3.50;0.45;;;16.90;99.90;;;;;;4876334;29;20037;-75
2022/07/02 00:24:39;;;;;;;2.20;0.70;;;16.90;99.90;;;;;;4876494;29;20047;-75
2022/07/02 00:27:07;;;;;;;2.72;0.57;;;16.90;99.90;;;;;;4876067;29;20556;-76
2022/07/02 00:29:36;;;;;;;3.42;0.65;;;16.80;99.90;;;;;;4875992;29;20056;-76
2022/07/02 00:32:04;;;;;;;3.08;0.70;;;16.80;99.90;;;;;;4876129;29;20057;-75
2022/07/02 00:34:33;;;;;;;5.80;0.80;;;16.70;99.90;;;;;;4876132;29;20088;-75
2022/07/02 00:36:59;;;;;;;4.95;1.00;;;16.70;99.90;;;;;;4876577;29;20036;-74
2022/07/02 00:39:25;;;;;;;4.30;0.90;;;16.60;99.90;;;;;;4876005;29;20116;-75
2022/07/02 00:41:52;;;;;;;4.72;0.80;;;16.60;99.90;;;;;;4875831;29;20109;-74
2022/07/02 00:44:18;;;;;;;8.05;0.70;;;16.60;99.90;;;;;;4876107;29;20047;-74
2022/07/02 00:46:46;;;;;;;5.70;0.95;;;16.50;99.90;;;;;;4875816;29;20033;-74
2022/07/02 00:49:12;;;;;;;3.20;0.88;;;16.50;99.90;;;;;;4876107;29;20025;-74
2022/07/02 00:51:38;;;;;;;4.60;0.98;;;16.40;99.90;;;;;;4876101;29;20104;-74
2022/07/02 00:54:04;;;;;;;5.90;0.98;;;16.40;99.90;;;;;;4875950;29;20036;-74
2022/07/02 00:56:31;;;;;;;3.22;0.90;;;16.40;99.90;;;;;;4875998;29;20120;-77
2022/07/02 00:58:57;;;;;;;2.95;0.77;;;16.40;99.90;;;;;;4875756;29;20070;-76
2022/07/02 01:01:22;;;;;;;3.28;0.68;;;16.40;99.90;;;;;;4875652;29;20037;-74
2022/07/02 01:03:51;;;;;;;4.10;0.75;;;16.40;99.90;;;;;;4875774;29;20052;-74
2022/07/02 01:06:17;;;;;;;3.75;1.02;;;16.30;99.90;;;;;;4875616;29;20093;-74
2022/07/02 01:11:32;;;;;;;5.63;0.70;;;16.30;99.90;;;;;;4876181;29;20447;-74
2022/07/02 01:13:58;;;;;;;5.55;0.80;;;16.30;99.90;;;;;;4875762;29;20073;-74
2022/07/02 01:16:24;;;;;;;5.32;0.77;;;16.20;99.90;;;;;;4875806;29;20033;-74
2022/07/02 01:18:50;;;;;;;1.77;0.63;;;16.20;99.90;;;;;;4875647;29;20436;-74
2022/07/02 01:21:16;;;;;;;5.15;1.10;;;16.20;99.90;;;;;;4875815;29;20032;-74
2022/07/02 01:23:41;;;;;;;3.53;0.82;;;16.20;99.90;;;;;;4876024;29;20025;-76
2022/07/02 01:26:07;;;;;;;4.40;1.17;;;16.20;99.90;;;;;;4875741;29;20393;-76
2022/07/02 01:28:33;;;;;;;4.65;0.57;;;16.20;99.90;;;;;;4875692;29;20397;-76
2022/07/02 01:30:59;;;;;;;3.60;0.90;;;16.20;99.90;;;;;;4875842;29;20583;-77
2022/07/02 01:33:24;;;;;;;4.63;0.60;;;16.20;99.90;;;;;;4875560;29;20049;-77
2022/07/02 01:35:50;;;;;;;6.60;0.82;;;16.10;99.90;;;;;;4875554;29;20029;-76
2022/07/02 01:38:16;;;;;;;3.47;0.60;;;16.10;99.90;;;;;;4875396;29;20389;-76
2022/07/02 01:40:41;;;;;;;2.47;0.50;;;16.10;99.90;;;;;;4875552;29;20406;-76
2022/07/02 01:43:07;;;;;;;1.90;0.80;;;16.00;99.90;;;;;;4875802;29;20478;-77
2022/07/02 01:45:33;;;;;;;4.28;0.88;;;16.00;99.90;;;;;;4878318;29;20037;-77
2022/07/02 01:47:58;;;;;;;2.85;0.65;;;16.00;99.90;;;;;;4878737;29;20056;-77
2022/07/02 01:50:24;;;;;;;3.45;0.73;;;16.00;99.90;;;;;;4878894;29;20040;-77
2022/07/02 01:52:51;;;;;;;5.15;1.00;;;15.90;99.90;;;;;;4879068;29;20025;-77
2022/07/02 01:55:17;;;;;;;4.00;0.90;;;15.90;99.90;;;;;;4878649;29;20474;-76
2022/07/02 01:57:42;;;;;;;6.65;1.10;;;15.90;99.90;;;;;;4878730;29;20381;-76
2022/07/02 02:00:11;;;;;;;3.88;0.80;;;15.90;99.90;;;;;;4878687;29;20133;-76
2022/07/02 02:02:37;;;;;;;3.38;0.88;;;15.90;99.90;;;;;;4878164;29;20391;-77
2022/07/02 02:05:02;;;;;;;3.72;0.95;;;15.90;99.90;;;;;;4878805;29;20022;-77
2022/07/02 02:07:29;;;;;;;4.10;0.77;;;15.90;99.90;;;;;;4878510;29;20458;-76
2022/07/02 02:09:54;;;;;;;3.03;0.80;;;15.90;99.90;;;;;;4878526;29;20466;-76
2022/07/02 02:12:21;;;;;;;3.72;0.93;;;15.80;99.90;;;;;;4878423;29;20058;-77
2022/07/02 02:14:47;;;;;;;4.03;0.90;;;15.80;99.90;;;;;;4878465;29;20036;-77
2022/07/02 02:17:12;;;;;;;6.18;0.90;;;15.80;99.90;;;;;;4878190;29;20496;-77
2022/07/02 02:19:41;;;;;;;3.40;0.63;;;15.80;99.90;;;;;;4878433;29;20013;-77
2022/07/02 02:22:06;;;;;;;5.00;0.90;;;15.70;99.90;;;;;;4878501;29;20032;-77
2022/07/02 02:24:32;;;;;;;2.17;0.68;;;15.70;99.90;;;;;;4878631;29;20025;-76
2022/07/02 02:26:59;;;;;;;2.65;0.80;;;15.70;99.90;;;;;;4878153;29;20033;-76
2022/07/02 02:29:25;;;;;;;4.78;0.80;;;15.70;99.90;;;;;;4878001;29;20029;-76
2022/07/02 02:31:51;;;;;;;5.95;1.13;;;15.70;99.90;;;;;;4877909;29;20025;-76
2022/07/02 02:34:16;;;;;;;4.30;0.80;;;15.70;99.90;;;;;;4877940;29;20108;-76
2022/07/02 02:36:42;;;;;;;3.10;0.77;;;15.70;99.90;;;;;;4877991;29;20049;-76
2022/07/02 02:39:08;;;;;;;3.38;0.90;;;15.70;99.90;;;;;;4878239;29;20591;-77
2022/07/02 02:41:33;;;;;;;5.45;1.00;;;15.70;99.90;;;;;;4878335;29;20033;-76
2022/07/02 02:43:59;;;;;;;2.75;0.77;;;15.80;99.90;;;;;;4877793;29;20072;-77
2022/07/02 02:46:25;;;;;;;2.17;0.75;;;15.70;99.90;;;;;;4877758;29;20410;-77
2022/07/02 02:48:50;;;;;;;2.92;0.77;;;15.80;99.90;;;;;;4877649;29;20501;-77
2022/07/02 02:51:16;;;;;;;4.22;0.80;;;15.80;99.90;;;;;;4877663;29;20085;-77
2022/07/02 02:53:42;;;;;;;3.88;0.80;;;15.80;99.90;;;;;;4877636;29;20033;-76
2022/07/02 02:56:09;;;;;;;4.80;0.93;;;15.80;99.90;;;;;;4876634;29;20451;-76
2022/07/02 02:58:35;;;;;;;4.03;0.60;;;15.70;99.90;;;;;;4877655;29;20189;-77
2022/07/02 03:01:01;;;;;;;4.97;0.63;;;15.70;99.90;;;;;;4877622;29;20434;-77
2022/07/02 03:03:26;;;;;;;2.88;0.88;;;15.70;99.90;;;;;;4877433;29;20060;-77
2022/07/02 03:05:52;;;;;;;5.97;0.93;;;15.70;99.90;;;;;;4877355;29;20029;-76
2022/07/02 03:08:19;;;;;;;5.35;0.90;;;15.70;99.90;;;;;;4877671;29;20044;-76
2022/07/02 03:10:45;;;;;;;2.20;0.70;;;15.70;99.90;;;;;;4877361;29;20021;-76
2022/07/02 03:13:10;;;;;;;2.75;0.80;;;15.70;99.90;;;;;;4877374;29;20024;-77
2022/07/02 03:15:36;;;;;;;4.25;0.68;;;15.70;99.90;;;;;;4877352;29;20108;-77
2022/07/02 03:18:05;;;;;;;2.00;0.60;;;15.70;99.90;;;;;;4877477;29;20029;-76
2022/07/02 03:20:31;;;;;;;6.80;0.80;;;15.60;99.90;;;;;;4877381;29;20489;-76
2022/07/02 03:22:57;;;;;;;4.57;0.95;;;15.60;99.90;;;;;;4877083;29;20108;-77
2022/07/02 03:25:22;;;;;;;2.60;0.60;;;15.60;99.90;;;;;;4877187;29;20021;-77
2022/07/02 03:27:48;;;;;;;4.72;1.00;;;15.50;99.90;;;;;;4876836;29;20041;-77
2022/07/02 03:30:14;;;;;;;1.73;0.77;;;15.50;99.90;;;;;;4877149;29;20677;-76
2022/07/02 03:32:40;;;;;;;3.28;0.63;;;15.50;99.90;;;;;;4876932;29;20032;-77
2022/07/02 03:35:06;;;;;;;3.10;0.70;;;15.50;99.90;;;;;;4877122;29;20021;-77
2022/07/02 03:37:31;;;;;;;4.95;0.95;;;15.40;99.90;;;;;;4877162;29;20051;-77
2022/07/02 03:39:57;;;;;;;2.92;0.70;;;15.40;99.90;;;;;;4876712;29;20464;-76
2022/07/02 03:42:23;;;;;;;5.18;1.27;;;15.40;99.90;;;;;;4876760;29;20025;-75
2022/07/02 03:44:49;;;;;;;4.95;0.60;;;15.30;99.90;;;;;;4876850;29;20036;-74
2022/07/02 03:47:15;;;;;;;4.93;1.00;;;15.30;99.90;;;;;;4876422;29;20493;-74
2022/07/02 03:49:40;;;;;;;4.15;0.93;;;15.30;99.90;;;;;;4876700;29;20479;-74
2022/07/02 03:52:06;;;;;;;4.03;0.90;;;15.20;99.90;;;;;;4876737;29;20037;-74
2022/07/02 03:54:32;;;;;;;2.97;0.90;;;15.20;99.90;;;;;;4877208;29;20509;-74
2022/07/02 03:56:58;;;;;;;3.90;1.30;;;15.20;99.90;;;;;;4877123;29;20033;-76
2022/07/02 03:59:24;;;;;;;3.80;1.10;;;15.10;99.90;;;;;;4876880;29;20036;-76
2022/07/02 04:01:50;;;;;;;2.38;0.75;;;15.10;99.90;;;;;;4876699;29;20423;-76
2022/07/02 04:04:16;;;;;;;2.60;0.80;;;15.10;99.90;;;;;;4876124;29;20044;-77
2022/07/02 04:06:42;;;;;;;2.60;0.80;;;15.10;99.90;;;;;;4876087;29;20041;-76
2022/07/02 04:09:07;;;;;;;2.65;0.90;;;15.10;99.90;;;;;;4876483;29;20100;-76
2022/07/02 04:11:33;;;;;;;4.78;1.45;;;15.10;99.90;;;;;;4876438;29;20037;-76
2022/07/02 04:13:59;;;;;;;3.85;1.05;;;15.10;99.90;;;;;;4876350;29;20025;-77
2022/07/02 04:16:24;;;;;;;2.35;1.00;;;15.10;99.90;;;;;;4876351;29;20025;-77
2022/07/02 04:18:50;;;;;;;3.72;0.77;;;15.10;99.90;;;;;;4876383;29;20028;-76
2022/07/02 04:21:16;;;;;;;3.67;0.75;;;15.10;99.90;;;;;;4875997;29;20097;-77
2022/07/02 04:23:42;;;;;;;4.20;1.33;;;15.10;99.90;;;;;;4876277;29;20089;-77
2022/07/02 04:26:07;;;;;;;4.00;0.90;;;15.00;99.90;;;;;;4876049;29;20398;-77
2022/07/02 04:28:33;;;;;;;6.43;0.77;;;15.00;99.90;;;;;;4876257;29;20026;-76
2022/07/02 04:31:01;;;;;;;2.92;1.25;;;15.00;99.90;;;;;;4876056;29;20325;-76
2022/07/02 04:33:27;;;;;;;1.95;0.65;;;15.10;99.90;;;;;;4876477;29;20360;-77
2022/07/02 04:35:53;;;;;;;1.63;0.70;;;15.10;99.90;;;;;;4876311;29;20028;-76
2022/07/02 04:38:18;;;;;;;1.95;0.85;;;15.00;99.90;;;;;;4876002;29;20064;-77
2022/07/02 04:40:44;;;;;;;1.77;0.95;;;15.00;99.90;;;;;;4875884;29;20050;-76
2022/07/02 04:43:10;;;;;;;4.20;0.90;;;15.10;99.90;;;;;;4876073;29;20862;-77
2022/07/02 04:45:35;;;;;;;4.95;1.17;;;15.10;99.90;;;;;;4875928;29;20045;-76
2022/07/02 04:48:01;;;;;;;3.35;0.98;;;15.10;99.90;;;;;;4876080;29;20045;-76
2022/07/02 04:50:27;;;;;;;5.43;1.27;;;15.10;99.90;;;;;;4876079;29;20061;-77
2022/07/02 04:52:53;;;;;;;4.68;1.48;;;15.10;99.90;;;;;;4866296;29;20037;-76
2022/07/02 04:55:18;;;;;;;4.97;1.50;;;15.20;99.90;;;;;;4871187;29;20021;-76
2022/07/02 04:57:44;;;;;;;2.35;1.10;;;15.20;99.90;;;;;;4876094;29;20036;-77
2022/07/02 05:00:10;;;;;;;6.07;1.08;;;15.20;99.90;;;;;;4875876;29;20025;-77
2022/07/02 05:02:36;;;;;;;4.45;1.38;;;15.20;99.90;;;;;;4875708;29;20570;-76
2022/07/02 05:05:02;;;;;;;3.28;1.00;;;15.30;99.90;;;;;;4876076;29;20140;-76
2022/07/02 05:07:27;;;;;;;3.55;1.40;;;15.30;99.90;;;;;;4875902;29;20116;-76
2022/07/02 05:09:53;;;;;;;4.03;1.25;;;15.40;99.90;;;;;;4874859;29;20500;-77
2022/07/02 05:12:19;;;;;;;4.53;1.42;;;15.40;99.90;;;;;;4875819;29;20029;-77
2022/07/02 05:14:44;;;;;;;4.97;0.80;;;15.50;99.90;;;;;;4875805;29;20505;-76
2022/07/02 05:17:10;;;;;;;2.00;0.80;;;15.50;99.90;;;;;;4875558;29;20037;-77
2022/07/02 05:19:36;;;;;;;2.80;1.02;;;15.60;99.90;;;;;;4877519;29;20492;-76
2022/07/02 05:22:02;;;;;;;4.60;1.20;;;15.60;99.90;;;;;;4879534;29;20033;-76
2022/07/02 05:24:28;;;;;;;3.05;0.90;;;15.70;99.90;;;;;;4879317;29;20033;-77
2022/07/02 05:26:53;;;;;;;2.17;0.90;;;15.80;99.90;;;;;;4879494;29;20469;-76
2022/07/02 05:29:19;;;;;;;4.05;0.93;;;15.80;99.90;;;;;;4879114;29;20029;-77
2022/07/02 05:31:45;;;;;;;4.25;1.08;;;15.80;99.90;;;;;;4878973;29;20025;-77
2022/07/02 05:34:14;;;;;;;6.25;1.10;;;15.90;99.90;;;;;;4879050;29;20081;-77
2022/07/02 05:36:39;;;;;;;4.22;0.80;;;15.90;99.90;;;;;;4878977;29;20017;-76
2022/07/02 05:39:05;;;;;;;3.50;1.10;;;16.00;99.90;;;;;;4879122;29;20413;-77
2022/07/02 05:41:30;;;;;;;2.55;0.70;;;16.00;99.90;;;;;;4879018;29;20036;-76
2022/07/02 05:43:56;;;;;;;4.07;0.80;;;16.00;99.90;;;;;;4878972;29;20033;-76
2022/07/02 05:46:22;;;;;;;5.65;1.05;;;16.10;99.90;;;;;;4878792;29;20037;-76
2022/07/02 05:48:47;;;;;;;2.47;0.90;;;16.10;99.90;;;;;;4878747;29;20040;-77
2022/07/02 05:51:13;;;;;;;3.90;0.75;;;16.20;99.90;;;;;;4878756;29;20033;-77
2022/07/02 05:53:39;;;;;;;2.05;0.70;;;16.20;99.90;;;;;;4879054;29;20059;-76
2022/07/02 05:56:05;;;;;;;5.45;0.93;;;16.30;99.90;;;;;;4878755;29;20029;-76
2022/07/02 05:58:31;;;;;;;3.10;0.90;;;16.40;99.90;;;;;;4878784;29;20029;-76
2022/07/02 06:00:57;;;;;;;2.45;0.73;;;16.40;99.90;;;;;;4878570;29;20033;-77
2022/07/02 06:03:22;;;;;;;3.70;1.00;;;16.50;99.90;;;;;;4878575;29;20072;-76
2022/07/02 06:08:32;;;;;;;2.50;0.90;;;16.60;99.90;;;;;;4878674;29;20549;-77
2022/07/02 06:10:58;;;;;;;3.38;0.90;;;16.70;99.90;;;;;;4878388;29;20057;-76
2022/07/02 06:13:23;;;;;;;5.63;0.70;;;16.80;99.90;;;;;;4878298;29;20033;-77
2022/07/02 06:15:49;;;;;;;2.78;0.88;;;16.90;99.90;;;;;;4878329;29;20033;-77
2022/07/02 06:18:15;;;;;;;2.30;0.90;;;17.00;99.90;;;;;;4878429;29;20065;-76
2022/07/02 06:20:40;;;;;;;3.78;0.85;;;17.10;99.90;;;;;;4878404;29;20033;-77
2022/07/02 06:23:06;;;;;;;4.80;1.13;;;17.20;99.90;;;;;;4878645;29;20038;-77
2022/07/02 06:25:33;;;;;;;1.92;0.65;;;17.30;99.90;;;;;;4878237;29;20510;-77
2022/07/02 06:27:59;;;;;;;4.70;0.70;;;17.30;99.90;;;;;;4878040;29;20037;-77
2022/07/02 06:30:25;;;;;;;2.67;0.90;;;17.40;99.90;;;;;;4877889;29;20028;-76
2022/07/02 06:32:51;;;;;;;4.25;0.63;;;17.50;99.90;;;;;;4877936;29;20390;-77
2022/07/02 06:35:16;;;;;;;2.83;0.80;;;17.60;99.90;;;;;;4878185;29;20025;-77
2022/07/02 06:37:42;;;;;;;3.38;0.57;;;17.60;99.90;;;;;;4878112;29;20088;-76
2022/07/02 06:40:08;;;;;;;5.70;1.10;;;17.70;99.90;;;;;;4877834;29;20041;-76
2022/07/02 06:42:34;;;;;;;3.00;0.73;;;17.80;99.90;;;;;;4877963;29;20030;-77
2022/07/02 06:45:00;;;;;;;2.80;0.70;;;17.80;99.90;;;;;;4877668;29;20036;-77
2022/07/02 06:47:27;;;;;;;3.00;0.65;;;17.90;99.90;;;;;;4877494;29;20490;-76
2022/07/02 06:49:57;;;;;;;3.35;0.80;;;18.00;99.90;;;;;;4877763;29;20136;-77
2022/07/02 06:52:24;;;;;;;3.30;0.93;;;18.10;99.90;;;;;;4877364;29;20176;-77
2022/07/02 06:54:49;;;;;;;5.05;0.90;;;18.20;99.90;;;;;;4877678;29;20410;-77
2022/07/02 06:57:15;;;;;;;1.08;0.50;;;18.20;99.90;;;;;;4877761;29;20032;-77
2022/07/02 06:59:41;;;;;;;1.83;0.63;;;18.30;99.90;;;;;;4877546;29;20470;-77
2022/07/02 07:02:07;;;;;;;1.65;0.55;;;18.40;99.90;;;;;;4877331;29;20029;-77
2022/07/02 07:04:34;;;;;;;4.22;0.60;;;18.50;99.90;;;;;;4877176;29;20049;-77
2022/07/02 07:07:03;;;;;;;3.17;0.50;;;18.50;99.90;;;;;;4877354;29;20089;-77
2022/07/02 07:09:29;;;;;;;4.05;0.70;;;18.60;99.90;;;;;;4877277;29;20112;-79
2022/07/02 07:11:55;;;;;;;2.20;0.52;;;18.70;99.90;;;;;;4876767;29;20491;-79
2022/07/02 07:14:21;;;;;;;3.10;0.47;;;18.80;99.90;;;;;;4876968;29;20400;-79
2022/07/02 07:16:47;;;;;;;3.95;0.82;;;18.90;99.90;;;;;;4876129;29;20080;-79
2022/07/02 07:19:13;;;;;;;1.85;0.68;;;19.00;99.90;;;;;;4883189;29;20025;-79
2022/07/02 07:21:40;;;;;;;4.93;0.50;;;19.10;99.90;;;;;;4887590;29;20245;-79
2022/07/02 07:24:08;;;;;;;2.50;0.77;;;19.10;99.90;;;;;;4877492;29;20057;-79
2022/07/02 07:26:35;;;;;;;1.70;0.45;;;19.20;99.90;;;;;;4876525;29;20033;-78
2022/07/02 07:29:01;;;;;;;4.18;0.70;;;19.30;99.90;;;;;;4876643;29;20028;-79
2022/07/02 07:31:28;;;;;;;2.38;0.60;;;19.30;99.90;;;;;;4876063;29;20029;-79
2022/07/02 07:33:55;;;;;;;2.15;0.65;;;19.40;99.90;;;;;;4876773;29;20036;-79
2022/07/02 07:36:23;;;;;;;2.55;0.60;;;19.50;99.90;;;;;;4877139;29;20173;-80
2022/07/02 07:38:50;;;;;;;4.50;0.70;;;19.70;99.90;;;;;;4877179;29;20033;-79
2022/07/02 07:41:16;;;;;;;2.53;0.50;;;19.70;99.90;;;;;;4876069;29;20036;-84
2022/07/02 07:43:42;;;;;;;1.45;0.47;;;19.80;99.90;;;;;;4876057;29;20104;-79
2022/07/02 07:46:08;;;;;;;2.38;0.50;;;19.90;99.90;;;;;;4875998;29;20451;-84
2022/07/02 07:48:33;;;;;;;2.97;0.50;;;19.90;99.90;;;;;;4873850;29;20595;-80
2022/07/02 07:51:00;;;;;;;3.05;0.57;;;20.00;99.90;;;;;;4876494;29;20029;-78
2022/07/02 07:53:26;;;;;;;3.22;0.50;;;20.10;99.90;;;;;;4877421;29;20116;-79
2022/07/02 07:55:52;;;;;;;1.15;0.60;;;20.20;99.90;;;;;;4876530;29;20032;-80
2022/07/02 07:58:18;;;;;;;3.15;0.50;;;20.30;99.90;;;;;;4876584;29;20033;-79
2022/07/02 08:00:45;;;;;;;1.40;0.45;;;20.30;99.90;;;;;;4875740;29;20060;-79
2022/07/02 08:03:11;;;;;;;3.95;0.60;;;20.40;99.90;;;;;;4876316;29;20045;-79
2022/07/02 08:05:36;;;;;;;2.72;0.60;;;20.50;99.90;;;;;;4876443;29;20497;-80
2022/07/02 08:08:02;;;;;;;2.00;0.50;;;20.60;99.90;;;;;;4876320;29;20045;-80
2022/07/02 08:10:29;;;;;;;1.90;0.50;;;20.70;99.90;;;;;;4876307;29;20112;-80
2022/07/02 08:12:55;;;;;;;1.33;0.40;;;20.70;99.90;;;;;;4876514;29;20033;-80
2022/07/02 08:15:21;;;;;;;3.38;0.35;;;20.80;99.90;;;;;;4876305;29;20077;-79
2022/07/02 08:17:46;;;;;;;1.60;0.45;;;21.00;99.90;;;;;;4876280;29;20112;-79
2022/07/02 08:20:12;;;;;;;2.22;0.60;;;21.10;99.90;;;;;;4876260;29;20028;-80
2022/07/02 08:22:38;;;;;;;1.88;0.60;;;21.20;99.90;;;;;;4876246;29;20531;-79
2022/07/02 08:25:06;;;;;;;2.83;0.93;;;21.20;99.70;;;;;;4876194;29;20550;-80
2022/07/02 08:27:32;;;;;;;3.05;0.65;;;21.30;99.10;;;;;;4875996;29;20033;-79
2022/07/02 08:29:58;;;;;;;3.55;1.15;;;21.30;99.80;;;;;;4875978;29;20478;-80
2022/07/02 08:32:25;;;;;;;2.15;0.60;;;21.50;99.50;;;;;;4876156;29;20032;-80
2022/07/02 08:34:55;;;;;;;2.63;0.70;;;21.50;98.30;;;;;;4876377;29;20048;-79
2022/07/02 08:37:21;;;;;;;2.17;0.50;;;21.50;98.30;;;;;;4876513;29;20149;-79
2022/07/02 08:39:47;;;;;;;1.77;0.40;;;21.60;98.30;;;;;;4876192;29;20029;-79
2022/07/02 08:42:27;;;;;;;2.95;0.55;;;21.80;98.90;;;;;;4876004;29;20178;-80
2022/07/02 08:44:54;;;;;;;3.55;0.50;;;21.90;97.70;;;;;;4876021;29;20026;-79
2022/07/02 08:47:21;;;;;;;2.10;0.45;;;21.90;97.00;;;;;;4875496;29;20529;-79
2022/07/02 08:49:48;;;;;;;2.67;0.65;;;21.90;96.60;;;;;;4875948;29;20025;-79
2022/07/02 08:52:18;;;;;;;3.42;0.50;;;21.90;97.70;;;;;;4878115;29;20025;-79
2022/07/02 08:54:45;;;;;;;2.60;0.40;;;22.10;97.20;;;;;;4878901;29;20033;-80
2022/07/02 08:57:12;;;;;;;2.40;0.73;;;22.20;97.20;;;;;;4880442;29;20115;-79
2022/07/02 08:59:38;;;;;;;2.33;0.40;;;22.30;96.40;;;;;;4879789;29;20040;-79
2022/07/02 09:02:05;;;;;;;2.00;0.57;;;22.30;96.70;;;;;;4879505;29;20025;-79
2022/07/02 09:04:33;;;;;;;3.72;0.50;;;22.40;95.70;;;;;;4881284;29;20550;-79
2022/07/02 09:07:02;;;;;;;1.42;0.50;;;22.30;95.20;;;;;;4880103;29;20036;-79
2022/07/02 09:09:29;;;;;;;1.63;0.40;;;22.30;96.40;;;;;;4880999;29;20116;-79
2022/07/02 09:11:56;;;;;;;3.20;0.85;;;22.30;97.20;;;;;;4883187;29;20025;-79
2022/07/02 09:14:22;;;;;;;4.85;0.52;;;22.30;97.00;;;;;;4879861;29;20025;-79
2022/07/02 09:16:49;;;;;;;1.85;0.60;;;22.30;96.80;;;;;;4879803;29;20390;-79
2022/07/02 09:19:16;;;;;;;1.80;0.50;;;22.50;96.10;;;;;;4879814;29;20111;-79
2022/07/02 09:21:47;;;;;;;1.98;0.60;;;22.50;96.90;;;;;;4879275;29;20020;-79
2022/07/02 09:24:13;;;;;;;2.25;0.80;;;22.60;96.40;;;;;;4868282;29;20029;-79
2022/07/02 09:26:38;;;;;;;1.90;0.50;;;22.70;95.30;;;;;;4879456;29;20546;-79
2022/07/02 09:29:04;;;;;;;3.28;0.38;;;22.70;95.30;;;;;;4881394;29;20028;-79
2022/07/02 09:31:46;;;;;;;2.83;0.47;;;22.60;95.60;;;;;;4879334;29;20390;-79
2022/07/02 09:34:26;;;;;;;3.45;0.50;;;22.70;96.80;;;;;;4881125;29;20064;-79
2022/07/02 09:36:52;;;;;;;2.80;0.65;;;22.70;94.70;;;;;;4879213;29;20028;-80
2022/07/02 09:39:31;;;;;;;1.10;0.47;;;22.70;95.10;;;;;;4881633;29;20030;-79
2022/07/02 09:41:57;;;;;;;5.30;0.60;;;22.80;94.30;;;;;;4882216;29;20028;-79
2022/07/02 09:44:25;;;;;;;3.60;0.70;;;22.90;96.20;;;;;;4883550;29;20059;-79
2022/07/02 09:46:54;;;;;;;2.53;0.50;;;23.00;95.70;;;;;;4882881;29;20100;-79
2022/07/02 09:49:19;;;;;;;4.13;0.60;;;23.20;95.50;;;;;;4879002;29;20037;-78
2022/07/02 09:51:50;;;;;;;3.22;0.40;;;23.20;95.20;;;;;;4880811;29;20482;-78
2022/07/02 09:54:24;;;;;;;2.35;0.60;;;23.30;94.00;;;;;;4888945;29;20037;-78
2022/07/02 09:56:58;;;;;;;3.80;0.60;;;23.30;95.30;;;;;;4883523;29;20071;-79
2022/07/02 09:59:24;;;;;;;3.05;0.68;;;23.30;94.70;;;;;;4883686;29;20029;-78
2022/07/02 10:01:50;;;;;;;3.47;0.70;;;23.50;94.60;;;;;;4877203;29;20105;-78
2022/07/02 10:04:26;;;;;;;4.63;0.77;;;23.50;93.80;;;;;;4879721;29;20498;-79
2022/07/02 10:06:52;;;;;;;2.47;0.77;;;23.50;95.60;;;;;;4882847;29;20096;-78
2022/07/02 10:09:20;;;;;;;7.72;0.90;;;23.40;96.50;;;;;;4879089;29;20017;-79
2022/07/02 10:11:46;;;;;;;3.03;0.75;;;23.30;96.90;;;;;;4870414;29;20017;-80
2022/07/02 10:14:15;;;;;;;3.47;0.88;;;23.30;96.90;;;;;;4881874;29;20383;-79
2022/07/02 10:16:42;;;;;;;3.30;1.05;;;23.20;96.40;;;;;;4881865;29;20041;-78
2022/07/02 10:19:09;;;;;;;2.28;0.73;;;23.20;96.40;;;;;;4882979;29;20041;-95
2022/07/02 10:21:38;;;;;;;2.60;0.70;;;23.20;96.20;;;;;;4881926;29;20033;-78
2022/07/02 10:24:14;;;;;;;1.70;0.50;;;23.30;95.90;;;;;;4880639;29;20031;-79
2022/07/02 10:26:40;;;;;;;6.18;0.65;;;23.40;96.00;;;;;;4879393;29;20033;-78
2022/07/02 10:29:06;;;;;;;2.72;0.70;;;23.50;95.20;;;;;;4878698;29;20443;-79
2022/07/02 10:31:37;;;;;;;2.22;0.60;;;23.30;94.90;;;;;;4877502;29;20035;-78
2022/07/02 10:34:16;;;;;;;2.70;0.68;;;23.30;95.50;;;;;;4876740;29;20413;-79
2022/07/02 10:36:42;;;;;;;3.38;0.70;;;23.50;95.00;;;;;;4877492;29;20021;-78
2022/07/02 10:39:14;;;;;;;3.80;0.70;;;23.60;94.90;;;;;;4878227;29;20040;-79
2022/07/02 10:41:40;;;;;;;1.70;0.40;;;23.50;94.50;;;;;;4877700;29;20058;-78
2022/07/02 10:44:09;;;;;;;2.85;0.70;;;23.40;94.60;;;;;;4877946;29;20025;-79
2022/07/02 10:46:36;;;;;;;2.35;0.70;;;23.60;95.00;;;;;;4877835;29;20039;-79
2022/07/02 10:49:04;;;;;;;3.25;0.80;;;23.60;93.80;;;;;;4877975;29;20072;-79
2022/07/02 10:51:34;;;;;;;2.05;0.65;;;23.60;94.10;;;;;;4877628;29;20017;-91
2022/07/02 10:54:07;;;;;;;3.03;0.40;;;23.70;94.00;;;;;;4877761;29;20025;-79
2022/07/02 10:56:54;;;;;;;2.22;0.55;;;23.70;94.00;;;;;;4877649;29;20036;-79
2022/07/02 10:59:24;;;;;;;3.38;0.60;;;23.60;93.40;;;;;;4877693;29;20021;-79
2022/07/02 11:02:05;;;;;;;2.97;0.55;;;23.70;93.60;;;;;;4877337;29;20021;-79
2022/07/02 11:04:31;;;;;;;2.67;0.70;;;23.70;92.60;;;;;;4877483;29;20049;-79
2022/07/02 11:07:08;;;;;;;4.25;0.50;;;23.70;93.00;;;;;;4877986;29;20025;-79
2022/07/02 11:09:48;;;;;;;2.85;0.85;;;23.70;93.40;;;;;;4877646;29;20100;-79
2022/07/02 11:12:19;;;;;;;3.58;0.90;;;23.80;93.90;;;;;;4877728;29;20063;-79
2022/07/02 11:14:55;;;;;;;3.90;1.00;;;24.00;93.80;;;;;;4877502;29;20071;-79
2022/07/02 11:17:26;;;;;;;1.58;0.60;;;24.30;93.90;;;;;;4864477;29;20084;-79
2022/07/02 11:19:56;;;;;;;3.63;0.70;;;24.50;93.00;;;;;;4877327;29;20040;-79
2022/07/02 11:22:22;;;;;;;2.90;0.52;;;24.60;92.90;;;;;;4877269;29;20053;-79
2022/07/02 11:24:49;;;;;;;2.30;0.63;;;24.60;92.50;;;;;;4877571;29;20505;-79
2022/07/02 11:27:15;;;;;;;2.13;0.45;;;24.30;92.60;;;;;;4877180;29;20163;-79
2022/07/02 11:29:51;;;;;;;2.25;0.40;;;24.20;92.00;;;;;;4876081;29;20417;-79
2022/07/02 11:32:17;;;;;;;4.95;0.85;;;24.10;92.10;;;;;;4876876;29;20032;-79
2022/07/02 11:34:43;;;;;;;2.25;0.55;;;24.10;92.40;;;;;;4877015;29;20048;-79
2022/07/02 11:37:19;;;;;;;2.78;0.38;;;24.30;91.60;;;;;;4876934;29;20041;-79
2022/07/02 11:39:44;;;;;;;2.13;0.55;;;24.30;91.80;;;;;;4876971;29;20032;-79
2022/07/02 11:42:10;;;;;;;5.88;1.08;;;24.40;91.80;;;;;;4876854;29;20029;-79
2022/07/02 11:44:36;;;;;;;2.63;0.50;;;24.40;91.40;;;;;;4876866;29;20584;-79
2022/07/02 11:47:01;;;;;;;3.88;0.50;;;24.30;91.80;;;;;;4877202;29;20508;-79
2022/07/02 11:49:31;;;;;;;2.70;0.45;;;24.40;91.90;;;;;;4877006;29;20031;-79
2022/07/02 11:51:58;;;;;;;2.45;0.70;;;24.50;91.50;;;;;;4876792;29;20589;-79
2022/07/02 11:54:24;;;;;;;2.83;0.60;;;24.60;91.40;;;;;;4876836;29;20036;-79
2022/07/02 11:56:52;;;;;;;4.78;0.57;;;24.50;91.70;;;;;;4876768;29;20177;-79
2022/07/02 11:59:19;;;;;;;2.53;0.60;;;24.70;91.60;;;;;;4876574;29;20104;-79
2022/07/02 12:01:47;;;;;;;3.00;0.55;;;24.90;91.10;;;;;;4876405;29;20024;-79
2022/07/02 12:04:18;;;;;;;2.15;0.65;;;24.90;91.20;;;;;;4876328;29;20509;-79
2022/07/02 12:06:46;;;;;;;4.60;0.50;;;24.90;90.90;;;;;;4876763;29;20116;-79
2022/07/02 12:09:14;;;;;;;1.67;0.55;;;25.00;91.10;;;;;;4876664;29;20033;-79
2022/07/02 12:11:42;;;;;;;3.33;0.60;;;25.10;91.00;;;;;;4876669;29;20679;-79
2022/07/02 12:14:09;;;;;;;2.20;0.73;;;25.30;91.20;;;;;;4876448;29;20036;-79
2022/07/02 12:16:37;;;;;;;1.45;0.68;;;25.50;90.50;;;;;;4876360;29;20025;-79
2022/07/02 12:19:03;;;;;;;1.25;0.35;;;25.60;90.70;;;;;;4876276;29;20033;-79
2022/07/02 12:21:42;;;;;;;4.05;0.50;;;25.60;89.70;;;;;;4876348;29;20104;-79
2022/07/02 12:24:21;;;;;;;4.18;0.40;;;25.50;90.20;;;;;;4876311;29;20032;-79
2022/07/02 12:26:48;;;;;;;2.55;0.70;;;25.50;90.10;;;;;;4876531;29;20101;-79
2022/07/02 12:32:12;;;;;;;2.78;0.85;;;25.70;89.60;;;;;;4876197;29;20120;-79
2022/07/02 12:34:43;;;;;;;0.95;0.38;;;25.90;89.20;;;;;;4876042;29;20021;-79
2022/07/02 12:37:30;;;;;;;1.67;0.68;;;26.10;88.30;;;;;;4876153;29;20560;-79
2022/07/02 12:40:14;;;;;;;3.95;0.50;;;25.90;89.10;;;;;;4875987;29;20029;-79
2022/07/02 12:42:54;;;;;;;1.42;0.40;;;26.30;89.60;;;;;;4874785;29;20021;-78
2022/07/02 12:45:24;;;;;;;4.38;0.75;;;26.80;88.30;;;;;;4875523;29;20021;-91
2022/07/02 12:47:58;;;;;;;2.20;0.40;;;27.30;89.00;;;;;;4875725;29;20081;-79
2022/07/02 12:50:24;;;;;;;2.60;0.55;;;27.50;86.40;;;;;;4876318;29;20534;-79
2022/07/02 12:52:52;;;;;;;1.70;0.52;;;27.40;86.10;;;;;;4876291;29;20399;-79
2022/07/02 12:55:33;;;;;;;1.58;0.50;;;27.20;86.40;;;;;;4876028;29;20039;-78
2022/07/02 12:58:02;;;;;;;4.15;0.75;;;27.40;86.20;;;;;;4875907;29;20053;-79